Time;durP1;ratioP1;P1;durP2;ratioP2;P2;SDS_P1;SDS_P2;PMS_P1;PMS_P2;Temp;Humidity;BMP_temperature;BMP_pressure;BME280_temperature;BME280_humidity;BME280_pressure;Samples;Min_cycle;Max_cycle;Signal;HPM_P1;HPM_P2
2022/11/28 00:02:25;;;;;;;4.77;4.47;;;5.10;99.90;;;;;;6311061;28;20289;-68
2022/11/28 00:05:31;;;;;;;4.13;3.93;;;5.10;99.90;;;;;;6297350;28;20288;-69
2022/11/28 00:08:36;;;;;;;5.13;4.30;;;5.10;99.90;;;;;;6315160;28;20458;-69
2022/11/28 00:11:44;;;;;;;4.37;4.17;;;5.10;99.90;;;;;;6304657;28;20266;-69
2022/11/28 00:14:50;;;;;;;4.20;4.00;;;5.10;99.90;;;;;;6290227;28;20464;-68
2022/11/28 00:17:55;;;;;;;4.20;4.00;;;5.10;99.90;;;;;;6290060;28;20270;-68
2022/11/28 00:21:00;;;;;;;4.37;4.07;;;5.10;99.90;;;;;;6289817;28;20311;-68
2022/11/28 00:24:07;;;;;;;4.40;4.10;;;5.10;99.90;;;;;;6289565;28;20295;-68
2022/11/28 00:27:13;;;;;;;4.07;3.87;;;5.10;99.90;;;;;;6290604;28;20270;-69
2022/11/28 00:30:18;;;;;;;4.20;3.93;;;5.10;99.90;;;;;;6272122;28;20467;-69
2022/11/28 00:33:23;;;;;;;3.77;3.57;;;5.00;99.90;;;;;;6289761;28;20280;-68
2022/11/28 00:36:29;;;;;;;4.13;3.93;;;5.10;99.90;;;;;;6290381;28;20264;-69
2022/11/28 00:39:33;;;;;;;4.40;4.20;;;5.00;99.90;;;;;;6289879;28;20370;-68
2022/11/28 00:42:39;;;;;;;3.77;3.50;;;5.00;99.90;;;;;;6308314;28;20300;-69
2022/11/28 00:45:44;;;;;;;4.07;3.80;;;5.00;99.90;;;;;;6314471;28;20297;-69
2022/11/28 00:48:50;;;;;;;4.80;3.73;;;5.00;99.90;;;;;;6314070;28;20300;-69
2022/11/28 00:51:55;;;;;;;3.70;3.57;;;5.00;99.90;;;;;;6314673;28;20279;-69
2022/11/28 00:55:00;;;;;;;3.80;3.60;;;5.00;99.90;;;;;;6314118;28;20292;-69
2022/11/28 00:58:06;;;;;;;3.40;3.30;;;5.00;99.90;;;;;;6314731;28;20358;-69
2022/11/28 01:01:15;;;;;;;3.57;3.30;;;5.00;99.90;;;;;;6313482;28;20284;-69
2022/11/28 01:04:20;;;;;;;3.23;3.13;;;5.00;99.90;;;;;;6313705;28;20283;-68
2022/11/28 01:07:27;;;;;;;3.40;3.30;;;5.00;99.90;;;;;;6314022;28;20263;-69
2022/11/28 01:10:32;;;;;;;4.10;3.10;;;5.00;99.90;;;;;;6312502;28;20505;-68
2022/11/28 01:13:38;;;;;;;3.23;3.13;;;5.00;99.90;;;;;;6288724;28;20301;-69
2022/11/28 01:16:42;;;;;;;3.73;3.53;;;5.10;99.90;;;;;;6288453;28;20269;-69
2022/11/28 01:19:47;;;;;;;3.60;3.50;;;5.10;99.90;;;;;;6288908;28;20305;-69
2022/11/28 01:22:52;;;;;;;3.23;3.03;;;5.10;99.90;;;;;;6288867;28;20288;-69
2022/11/28 01:25:57;;;;;;;3.67;3.57;;;5.10;99.90;;;;;;6288490;28;20319;-69
2022/11/28 01:29:03;;;;;;;3.33;3.20;;;5.10;99.90;;;;;;6288264;28;20318;-70
2022/11/28 01:32:07;;;;;;;3.60;3.43;;;5.00;99.90;;;;;;6288915;28;20272;-68
2022/11/28 01:35:12;;;;;;;3.50;3.23;;;5.00;99.90;;;;;;6288467;28;20297;-68
2022/11/28 01:38:17;;;;;;;3.97;3.77;;;5.00;99.90;;;;;;6287610;28;20285;-69
2022/11/28 01:41:26;;;;;;;3.70;3.50;;;5.00;99.90;;;;;;6296596;28;20579;-69
2022/11/28 01:45:06;;;;;;;3.93;3.63;;;5.00;99.90;;;;;;6312609;28;20296;-69
2022/11/28 01:48:15;;;;;;;3.50;3.40;;;5.00;99.90;;;;;;6312941;28;20292;-69
2022/11/28 01:51:20;;;;;;;3.67;3.57;;;4.90;99.90;;;;;;6313447;28;20277;-67
2022/11/28 01:54:26;;;;;;;3.40;3.30;;;5.00;99.90;;;;;;6311847;28;20308;-68
2022/11/28 01:57:31;;;;;;;3.50;3.20;;;5.00;99.90;;;;;;6312873;28;20268;-67
2022/11/28 02:00:37;;;;;;;3.20;3.10;;;5.00;99.90;;;;;;6312694;28;20300;-69
2022/11/28 02:03:45;;;;;;;3.73;3.60;;;5.00;99.90;;;;;;6312432;28;20288;-69
2022/11/28 02:06:50;;;;;;;3.13;3.03;;;5.00;99.90;;;;;;6311688;28;20269;-68
2022/11/28 02:09:55;;;;;;;3.70;3.40;;;5.00;99.90;;;;;;6312112;28;20304;-67
2022/11/28 02:13:22;;;;;;;3.30;3.20;;;4.90;99.90;;;;;;6291067;28;20339;-68
2022/11/28 02:16:44;;;;;;;3.70;3.60;;;4.80;99.90;;;;;;6286828;28;20303;-68
2022/11/28 02:20:42;;;;;;;3.60;3.40;;;4.80;99.90;;;;;;6286757;28;20565;-68
2022/11/28 02:24:43;;;;;;;3.77;3.57;;;4.90;99.90;;;;;;6244144;28;20296;-68
2022/11/28 02:28:25;;;;;;;3.93;3.63;;;4.90;99.90;;;;;;6269658;28;20265;-68
2022/11/28 02:32:01;;;;;;;3.33;3.13;;;4.90;99.90;;;;;;6261697;28;20275;-68
2022/11/28 02:35:10;;;;;;;3.63;3.43;;;4.90;99.90;;;;;;6278206;28;20376;-68
2022/11/28 02:38:22;;;;;;;3.30;3.17;;;4.90;99.90;;;;;;6267601;28;20268;-69
2022/11/28 02:41:33;;;;;;;3.47;3.20;;;4.90;99.90;;;;;;6271279;28;20592;-68
2022/11/28 02:44:44;;;;;;;3.13;3.03;;;4.90;99.90;;;;;;6286535;28;20307;-69
2022/11/28 02:47:56;;;;;;;3.20;3.10;;;4.90;99.90;;;;;;6287039;28;20573;-68
2022/11/28 02:51:07;;;;;;;3.80;3.60;;;4.90;99.90;;;;;;6286526;28;20299;-68
2022/11/28 02:54:16;;;;;;;3.17;3.07;;;4.80;99.90;;;;;;6286342;28;20590;-68
2022/11/28 02:57:21;;;;;;;3.20;3.10;;;4.80;99.90;;;;;;6286415;28;20457;-68
2022/11/28 03:00:30;;;;;;;2.60;2.53;;;4.80;99.90;;;;;;6287612;28;20297;-68
2022/11/28 03:04:16;;;;;;;3.47;3.37;;;4.80;99.90;;;;;;6310766;28;20287;-68
2022/11/28 03:07:36;;;;;;;3.00;2.90;;;4.80;99.90;;;;;;6311340;28;20300;-69
2022/11/28 03:10:48;;;;;;;3.23;3.13;;;4.70;99.90;;;;;;6307924;28;20291;-69
2022/11/28 03:13:57;;;;;;;3.00;2.90;;;4.80;99.90;;;;;;6285961;28;20448;-69
2022/11/28 03:17:10;;;;;;;3.10;2.90;;;4.70;99.90;;;;;;6286768;28;20591;-69
2022/11/28 03:20:23;;;;;;;2.80;2.70;;;4.80;99.90;;;;;;6285884;28;20297;-69
2022/11/28 03:23:36;;;;;;;2.90;2.80;;;4.80;99.90;;;;;;6285417;28;20296;-68
2022/11/28 03:26:50;;;;;;;2.47;2.47;;;4.80;99.90;;;;;;6286133;28;20273;-68
2022/11/28 03:29:57;;;;;;;2.93;2.77;;;4.80;99.90;;;;;;6285832;28;20316;-68
2022/11/28 03:33:03;;;;;;;2.93;2.70;;;4.80;99.90;;;;;;6286228;28;20273;-68
2022/11/28 03:36:14;;;;;;;2.87;2.70;;;4.80;99.90;;;;;;6285399;28;20273;-68
2022/11/28 03:39:25;;;;;;;3.10;3.00;;;4.80;99.90;;;;;;6285088;28;20293;-67
2022/11/28 03:42:35;;;;;;;2.97;2.87;;;4.80;99.90;;;;;;6303269;28;20315;-68
2022/11/28 03:45:43;;;;;;;3.00;2.90;;;4.80;99.90;;;;;;6310389;28;20476;-68
2022/11/28 03:48:51;;;;;;;3.10;2.87;;;4.80;99.90;;;;;;6309982;28;20560;-69
2022/11/28 03:52:00;;;;;;;3.00;2.80;;;4.90;99.90;;;;;;6310338;28;20272;-69
2022/11/28 03:55:09;;;;;;;2.80;2.70;;;4.80;99.90;;;;;;6310276;28;20301;-67
2022/11/28 03:58:20;;;;;;;2.80;2.60;;;4.80;99.90;;;;;;6310277;28;20272;-69
2022/11/28 04:01:32;;;;;;;2.90;2.80;;;4.80;99.90;;;;;;6298572;28;20270;-69
2022/11/28 04:04:43;;;;;;;2.60;2.50;;;4.90;99.90;;;;;;6296601;28;20596;-68
2022/11/28 04:07:53;;;;;;;3.03;2.93;;;4.80;99.90;;;;;;6290019;28;20300;-68
2022/11/28 04:11:06;;;;;;;2.60;2.60;;;4.90;99.90;;;;;;6295931;28;20270;-68
2022/11/28 04:14:17;;;;;;;2.83;2.73;;;4.90;99.90;;;;;;6309878;28;20300;-69
2022/11/28 04:17:29;;;;;;;2.90;2.70;;;4.90;99.90;;;;;;6309664;28;20295;-68
2022/11/28 04:20:38;;;;;;;2.57;2.53;;;4.90;99.90;;;;;;6291118;28;20542;-68
2022/11/28 04:23:45;;;;;;;2.50;2.40;;;4.90;99.90;;;;;;6284484;28;20299;-68
2022/11/28 04:26:55;;;;;;;4.00;2.80;;;4.90;99.90;;;;;;6285204;28;20274;-68
2022/11/28 04:30:01;;;;;;;2.50;2.40;;;4.90;99.90;;;;;;6284868;28;20278;-69
2022/11/28 04:33:09;;;;;;;2.70;2.70;;;4.90;99.90;;;;;;6284593;28;20293;-69
2022/11/28 04:36:15;;;;;;;2.87;2.80;;;4.90;99.90;;;;;;6292706;28;20266;-68
2022/11/28 04:39:24;;;;;;;3.37;3.10;;;4.80;99.90;;;;;;6309682;28;20295;-68
2022/11/28 04:42:35;;;;;;;3.43;3.23;;;4.90;99.90;;;;;;6309279;28;20455;-68
2022/11/28 04:45:46;;;;;;;3.37;3.17;;;4.90;99.90;;;;;;6310145;28;20283;-68
2022/11/28 04:48:51;;;;;;;4.20;3.73;;;4.90;99.90;;;;;;6309759;28;20293;-68
2022/11/28 04:52:02;;;;;;;3.27;3.17;;;4.90;99.90;;;;;;6314435;28;20462;-68
2022/11/28 04:55:13;;;;;;;4.20;3.90;;;5.00;99.90;;;;;;6288967;28;20274;-67
2022/11/28 04:58:21;;;;;;;7.40;4.67;;;4.90;99.90;;;;;;6289077;28;20303;-68
2022/11/28 05:01:29;;;;;;;17.40;6.40;;;5.00;99.90;;;;;;6271397;28;20463;-67
2022/11/28 05:04:36;;;;;;;16.87;8.13;;;5.00;99.90;;;;;;6310672;28;20305;-68
2022/11/28 05:07:40;;;;;;;25.10;8.67;;;5.00;99.90;;;;;;6313930;28;20297;-68
2022/11/28 05:10:46;;;;;;;23.70;8.83;;;5.00;99.90;;;;;;6314070;28;20261;-67
2022/11/28 05:13:51;;;;;;;22.03;9.13;;;5.00;99.90;;;;;;6313299;28;20317;-67
2022/11/28 05:16:56;;;;;;;16.43;7.60;;;4.90;99.90;;;;;;6313701;28;20265;-67
2022/11/28 05:20:01;;;;;;;25.30;8.87;;;5.00;99.90;;;;;;6299557;28;20285;-69
2022/11/28 05:23:06;;;;;;;26.33;9.87;;;5.00;99.90;;;;;;6263561;28;20294;-69
2022/11/28 05:26:16;;;;;;;45.37;13.97;;;5.00;99.90;;;;;;6263835;28;20288;-69
2022/11/28 05:29:21;;;;;;;73.57;21.13;;;5.10;99.90;;;;;;6263597;28;20302;-69
2022/11/28 05:32:25;;;;;;;74.67;21.50;;;5.10;99.90;;;;;;6262172;28;20298;-69
2022/11/28 05:35:30;;;;;;;53.73;16.47;;;5.10;99.90;;;;;;6263890;28;20574;-69
2022/11/28 05:38:35;;;;;;;53.47;15.67;;;5.10;99.90;;;;;;6245658;28;20311;-68
2022/11/28 05:41:42;;;;;;;32.37;11.87;;;5.10;99.90;;;;;;6272617;28;20294;-69
2022/11/28 05:44:47;;;;;;;34.10;12.10;;;5.00;99.90;;;;;;6287915;28;20298;-69
2022/11/28 05:47:52;;;;;;;23.13;10.33;;;5.00;99.90;;;;;;6288008;28;20292;-69
2022/11/28 05:50:57;;;;;;;23.37;9.80;;;5.00;99.90;;;;;;6288566;28;20265;-69
2022/11/28 05:54:01;;;;;;;20.90;9.97;;;5.00;99.90;;;;;;6287667;28;20301;-69
2022/11/28 05:57:07;;;;;;;14.67;9.37;;;5.00;99.90;;;;;;6287039;28;20273;-69
2022/11/28 06:00:14;;;;;;;24.80;9.83;;;5.00;99.90;;;;;;6287782;28;20349;-67
2022/11/28 06:03:19;;;;;;;17.70;8.40;;;5.00;99.90;;;;;;6287303;28;20307;-68
2022/11/28 06:06:24;;;;;;;25.43;9.67;;;5.10;99.90;;;;;;6288042;28;20289;-68
2022/11/28 06:09:29;;;;;;;20.57;9.33;;;5.00;99.90;;;;;;6287788;28;20313;-68
2022/11/28 06:12:35;;;;;;;21.83;9.40;;;5.00;99.90;;;;;;6312414;28;20296;-67
2022/11/28 06:15:43;;;;;;;18.77;9.03;;;5.10;99.90;;;;;;6312396;28;20272;-69
2022/11/28 06:18:51;;;;;;;12.97;9.10;;;5.00;99.90;;;;;;6312553;28;20303;-68
2022/11/28 06:21:56;;;;;;;24.93;10.77;;;5.00;99.90;;;;;;6312230;28;20270;-68
2022/11/28 06:25:01;;;;;;;25.90;10.43;;;5.00;99.90;;;;;;6311467;28;20288;-69
2022/11/28 06:28:07;;;;;;;25.17;11.20;;;5.10;99.90;;;;;;6311365;28;20295;-69
2022/11/28 06:31:14;;;;;;;28.00;10.43;;;5.00;99.90;;;;;;6312517;28;20268;-68
2022/11/28 06:34:18;;;;;;;29.23;10.80;;;5.00;99.90;;;;;;6311401;28;20291;-69
2022/11/28 06:37:23;;;;;;;21.70;9.80;;;5.00;99.90;;;;;;6311835;28;20309;-68
2022/11/28 06:40:28;;;;;;;18.00;8.83;;;5.00;99.90;;;;;;6312232;28;20271;-68
2022/11/28 06:43:34;;;;;;;25.13;8.00;;;5.00;99.90;;;;;;6310980;28;20605;-68
2022/11/28 06:46:39;;;;;;;37.90;10.63;;;5.00;99.90;;;;;;6311796;28;20287;-68
2022/11/28 06:49:44;;;;;;;31.47;9.37;;;5.10;99.90;;;;;;6311480;28;20292;-69
2022/11/28 06:52:48;;;;;;;31.13;8.97;;;5.10;99.90;;;;;;6311326;28;20300;-69
2022/11/28 06:55:55;;;;;;;25.33;7.80;;;5.00;99.90;;;;;;6311723;28;20274;-69
2022/11/28 06:59:01;;;;;;;26.70;7.93;;;5.00;99.90;;;;;;6310735;28;20296;-68
2022/11/28 07:02:06;;;;;;;17.53;8.00;;;5.10;99.90;;;;;;6311255;28;20441;-68
2022/11/28 07:05:11;;;;;;;29.67;10.20;;;5.10;99.90;;;;;;6293757;28;20265;-69
2022/11/28 07:08:16;;;;;;;13.37;8.20;;;5.10;99.90;;;;;;6311041;28;20292;-69
2022/11/28 07:11:24;;;;;;;18.07;8.43;;;5.10;99.90;;;;;;6311432;28;20564;-68
2022/11/28 07:14:33;;;;;;;26.77;10.33;;;5.10;99.90;;;;;;6310324;28;20292;-69
2022/11/28 07:17:37;;;;;;;33.87;11.33;;;5.10;99.90;;;;;;6310288;28;20300;-69
2022/11/28 07:20:42;;;;;;;28.70;10.77;;;5.10;99.90;;;;;;6310425;28;20264;-68
2022/11/28 07:23:47;;;;;;;39.53;11.83;;;5.10;99.90;;;;;;6310385;28;20594;-68
2022/11/28 07:26:51;;;;;;;25.67;9.90;;;5.10;99.90;;;;;;6310460;28;20289;-68
2022/11/28 07:29:57;;;;;;;25.43;11.07;;;5.10;99.90;;;;;;6310284;28;20308;-69
2022/11/28 07:33:02;;;;;;;20.20;10.47;;;5.10;99.90;;;;;;6310255;28;20467;-68
2022/11/28 07:36:12;;;;;;;27.43;9.97;;;5.10;99.90;;;;;;6311226;28;20273;-69
2022/11/28 07:39:17;;;;;;;20.53;10.17;;;5.10;99.90;;;;;;6310613;28;20293;-69
2022/11/28 07:42:22;;;;;;;25.03;9.37;;;5.10;99.90;;;;;;6309982;28;20323;-69
2022/11/28 07:45:41;;;;;;;20.00;9.40;;;5.10;99.90;;;;;;6292972;28;20301;-69
2022/11/28 07:49:04;;;;;;;18.67;8.43;;;5.10;99.90;;;;;;6310430;28;20293;-69
2022/11/28 07:52:12;;;;;;;32.57;10.30;;;5.00;99.90;;;;;;6310532;28;20265;-69
2022/11/28 07:55:17;;;;;;;14.77;8.53;;;5.10;99.90;;;;;;6310664;28;20268;-69
2022/11/28 07:58:22;;;;;;;20.77;7.97;;;5.10;99.90;;;;;;6310276;28;20310;-69
2022/11/28 08:01:32;;;;;;;17.67;7.47;;;5.10;99.90;;;;;;6310829;28;20264;-69
2022/11/28 08:04:37;;;;;;;12.97;7.00;;;5.20;99.90;;;;;;6310026;28;20303;-69
2022/11/28 08:07:50;;;;;;;15.33;6.37;;;5.20;99.90;;;;;;6310219;28;20295;-70
2022/11/28 08:10:58;;;;;;;26.30;7.07;;;5.30;99.90;;;;;;6310390;28;20261;-69
2022/11/28 08:14:03;;;;;;;16.63;6.90;;;5.20;99.90;;;;;;6310137;28;20313;-69
2022/11/28 08:17:09;;;;;;;17.63;7.13;;;5.20;99.90;;;;;;6309915;28;20271;-69
2022/11/28 08:20:14;;;;;;;10.10;5.57;;;5.20;99.90;;;;;;6310360;28;20268;-69
2022/11/28 08:23:19;;;;;;;13.40;6.37;;;5.10;99.90;;;;;;6310163;28;20336;-68
2022/11/28 08:26:26;;;;;;;9.90;5.07;;;5.20;99.90;;;;;;6315318;28;20288;-69
2022/11/28 08:29:34;;;;;;;8.63;3.90;;;5.20;99.90;;;;;;6314524;28;20296;-69
2022/11/28 08:32:40;;;;;;;10.20;4.90;;;5.20;99.90;;;;;;6314970;28;20305;-68
2022/11/28 08:35:45;;;;;;;13.43;4.67;;;5.10;99.90;;;;;;6315390;28;20265;-68
2022/11/28 08:38:50;;;;;;;13.27;4.50;;;5.10;99.90;;;;;;6314584;28;20303;-68
2022/11/28 08:42:13;;;;;;;9.63;4.87;;;5.00;99.90;;;;;;6314054;28;20463;-68
2022/11/28 08:45:18;;;;;;;9.77;4.03;;;5.10;99.90;;;;;;6315261;28;20273;-68
2022/11/28 08:48:24;;;;;;;11.43;4.80;;;5.10;99.90;;;;;;6313521;28;20295;-68
2022/11/28 08:51:29;;;;;;;13.73;5.20;;;5.20;99.90;;;;;;6314643;28;20264;-69
2022/11/28 08:54:34;;;;;;;9.20;4.20;;;5.20;99.90;;;;;;6313863;28;20293;-69
2022/11/28 08:57:39;;;;;;;9.00;3.97;;;5.20;99.90;;;;;;6314253;28;20388;-68
2022/11/28 09:00:44;;;;;;;5.13;3.67;;;5.30;99.90;;;;;;6314468;28;20265;-68
2022/11/28 09:03:50;;;;;;;6.30;4.33;;;5.30;99.90;;;;;;6313403;28;20292;-69
2022/11/28 09:06:55;;;;;;;8.10;4.10;;;5.30;99.90;;;;;;6313662;28;20601;-69
2022/11/28 09:10:00;;;;;;;10.23;4.93;;;5.30;99.90;;;;;;6312934;28;20277;-68
2022/11/28 09:13:07;;;;;;;9.43;5.03;;;5.40;99.90;;;;;;6313824;28;20300;-68
2022/11/28 09:16:13;;;;;;;10.20;4.30;;;5.30;99.90;;;;;;6314380;28;20266;-68
2022/11/28 09:19:19;;;;;;;9.20;4.53;;;5.30;99.90;;;;;;6313705;28;20292;-68
2022/11/28 09:22:24;;;;;;;33.20;7.63;;;5.40;99.90;;;;;;6314088;28;20323;-69
2022/11/28 09:25:29;;;;;;;15.80;5.10;;;5.40;99.90;;;;;;6313944;28;20266;-68
2022/11/28 09:28:33;;;;;;;19.60;6.33;;;5.30;99.90;;;;;;6313419;28;20302;-68
2022/11/28 09:31:38;;;;;;;11.17;5.27;;;5.30;99.90;;;;;;6313754;28;20269;-69
2022/11/28 09:34:51;;;;;;;10.70;4.43;;;5.40;99.90;;;;;;6313005;28;20577;-69
2022/11/28 09:37:58;;;;;;;11.70;5.10;;;5.30;99.90;;;;;;6312910;28;20487;-69
2022/11/28 09:41:04;;;;;;;7.20;4.60;;;5.30;99.90;;;;;;6313442;28;20301;-68
2022/11/28 09:44:18;;;;;;;7.43;5.10;;;5.30;99.90;;;;;;6312646;28;20301;-68
2022/11/28 09:47:26;;;;;;;17.87;6.77;;;5.30;99.90;;;;;;6312700;28;20293;-69
2022/11/28 09:50:35;;;;;;;10.23;5.37;;;5.40;99.90;;;;;;6313594;28;20270;-69
2022/11/28 09:53:45;;;;;;;12.57;5.97;;;5.50;99.90;;;;;;6312575;28;20298;-68
2022/11/28 09:56:51;;;;;;;13.20;6.30;;;5.40;99.90;;;;;;6313319;28;20566;-69
2022/11/28 09:59:56;;;;;;;11.40;6.27;;;5.40;99.90;;;;;;6312713;28;20298;-68
2022/11/28 10:03:18;;;;;;;11.50;5.50;;;5.40;99.90;;;;;;6312818;28;20297;-68
2022/11/28 10:06:27;;;;;;;7.07;5.17;;;5.40;99.90;;;;;;6313282;28;20442;-67
2022/11/28 10:09:38;;;;;;;12.80;5.90;;;5.40;99.90;;;;;;6312152;28;20440;-68
2022/11/28 10:12:50;;;;;;;14.47;5.90;;;5.40;99.90;;;;;;6311837;28;20609;-69
2022/11/28 10:16:03;;;;;;;9.87;5.60;;;5.40;99.90;;;;;;6312324;28;20270;-68
2022/11/28 10:19:12;;;;;;;13.33;6.03;;;5.40;99.90;;;;;;6312535;28;20302;-68
2022/11/28 10:22:44;;;;;;;15.20;5.93;;;5.40;99.90;;;;;;6311810;28;20297;-68
2022/11/28 10:25:54;;;;;;;13.23;5.87;;;5.40;99.90;;;;;;6312048;28;20263;-68
2022/11/28 10:29:01;;;;;;;10.07;5.50;;;5.30;99.90;;;;;;6311517;28;20305;-70
2022/11/28 10:32:06;;;;;;;13.43;6.00;;;5.30;99.90;;;;;;6311676;28;20269;-70
2022/11/28 10:35:23;;;;;;;10.20;5.73;;;5.30;99.90;;;;;;6311716;28;20273;-68
2022/11/28 10:38:35;;;;;;;14.67;5.60;;;5.30;99.90;;;;;;6311553;28;20297;-68
2022/11/28 10:42:10;;;;;;;21.57;7.23;;;5.40;99.90;;;;;;6286021;28;20325;-68
2022/11/28 10:45:20;;;;;;;6.73;4.73;;;5.40;99.90;;;;;;6285794;28;20274;-68
2022/11/28 10:48:39;;;;;;;8.20;4.80;;;5.40;99.90;;;;;;6286677;28;20298;-69
2022/11/28 10:51:54;;;;;;;11.73;5.23;;;5.50;99.90;;;;;;6285328;28;20273;-68
2022/11/28 10:55:28;;;;;;;6.63;5.40;;;5.50;99.90;;;;;;6286031;28;20278;-69
2022/11/28 10:58:39;;;;;;;7.90;4.73;;;5.50;99.90;;;;;;6281285;28;20314;-69
2022/11/28 11:01:44;;;;;;;36.10;9.67;;;5.50;99.90;;;;;;6286775;28;20291;-69
2022/11/28 11:04:54;;;;;;;19.97;7.00;;;5.40;99.90;;;;;;6286129;28;20301;-69
2022/11/28 11:08:02;;;;;;;14.97;6.20;;;5.40;99.90;;;;;;6286485;28;20301;-68
2022/11/28 11:11:23;;;;;;;7.90;5.43;;;5.50;99.90;;;;;;6300755;28;20305;-68
2022/11/28 11:14:34;;;;;;;13.00;5.97;;;5.50;99.90;;;;;;6310805;28;20604;-68
2022/11/28 11:17:39;;;;;;;9.67;5.33;;;5.50;99.90;;;;;;6310929;28;20297;-69
2022/11/28 11:20:44;;;;;;;5.70;5.07;;;5.50;99.90;;;;;;6310714;28;20277;-69
2022/11/28 11:24:10;;;;;;;12.83;5.20;;;5.50;99.90;;;;;;6310442;28;20317;-68
2022/11/28 11:27:21;;;;;;;8.87;5.20;;;5.50;99.90;;;;;;6310711;28;20536;-69
2022/11/28 11:30:28;;;;;;;6.80;4.90;;;5.50;99.90;;;;;;6311254;28;20294;-67
2022/11/28 11:33:36;;;;;;;11.00;5.90;;;5.40;99.90;;;;;;6310501;28;20292;-68
2022/11/28 11:36:41;;;;;;;11.27;6.70;;;5.40;99.90;;;;;;6311057;28;20278;-68
2022/11/28 11:39:49;;;;;;;15.37;6.70;;;5.40;99.90;;;;;;6310809;28;20303;-69
2022/11/28 11:42:58;;;;;;;24.73;8.00;;;5.40;99.90;;;;;;6310308;28;20320;-68
2022/11/28 11:46:08;;;;;;;16.40;7.63;;;5.40;99.90;;;;;;6310519;28;20265;-68
2022/11/28 11:49:29;;;;;;;20.27;8.07;;;5.40;99.90;;;;;;6309651;28;20297;-69
2022/11/28 11:52:34;;;;;;;21.73;8.07;;;5.50;99.90;;;;;;6310024;28;20301;-69
2022/11/28 11:55:44;;;;;;;31.07;8.93;;;5.40;99.90;;;;;;6309798;28;20283;-68
2022/11/28 11:58:53;;;;;;;16.73;6.40;;;5.50;99.90;;;;;;6309443;28;20317;-68
2022/11/28 12:02:01;;;;;;;6.07;5.40;;;5.50;99.90;;;;;;6309703;28;20268;-68
2022/11/28 12:05:13;;;;;;;20.43;6.67;;;5.50;99.90;;;;;;6310186;28;20266;-68
2022/11/28 12:08:27;;;;;;;15.90;6.40;;;5.40;99.90;;;;;;6309813;28;20300;-69
2022/11/28 12:11:35;;;;;;;10.90;4.87;;;5.40;99.90;;;;;;6310001;28;20266;-68
2022/11/28 12:14:41;;;;;;;12.23;5.10;;;5.20;99.90;;;;;;6309746;28;20293;-68
2022/11/28 12:18:03;;;;;;;7.93;4.00;;;5.40;99.90;;;;;;6310180;28;20292;-69
2022/11/28 12:21:13;;;;;;;6.20;3.67;;;5.30;99.90;;;;;;6310795;28;20273;-69
2022/11/28 12:24:22;;;;;;;22.23;5.20;;;5.30;99.90;;;;;;6309542;28;20298;-69
2022/11/28 12:27:40;;;;;;;15.30;5.03;;;5.20;99.90;;;;;;6309242;28;20300;-69
2022/11/28 12:30:58;;;;;;;9.70;4.20;;;5.30;99.90;;;;;;6309992;28;20288;-68
2022/11/28 12:34:15;;;;;;;5.97;4.40;;;5.30;99.90;;;;;;6310000;28;20296;-68
2022/11/28 12:37:35;;;;;;;5.80;4.20;;;5.30;99.90;;;;;;6309457;28;20296;-68
2022/11/28 12:41:18;;;;;;;6.67;4.20;;;5.20;99.90;;;;;;6310013;28;20272;-69
2022/11/28 12:44:33;;;;;;;4.53;4.20;;;5.20;99.90;;;;;;6309497;28;20297;-68
2022/11/28 12:47:49;;;;;;;5.70;4.10;;;5.30;99.90;;;;;;6309639;28;20304;-69
2022/11/28 12:51:02;;;;;;;11.37;5.17;;;5.20;99.90;;;;;;6309715;28;20289;-68
2022/11/28 12:54:47;;;;;;;11.20;5.03;;;5.30;99.90;;;;;;6309777;28;20306;-68
2022/11/28 12:57:58;;;;;;;4.60;4.13;;;5.30;99.90;;;;;;6307566;28;20298;-69
2022/11/28 13:01:26;;;;;;;4.60;4.30;;;5.20;99.90;;;;;;6309903;28;20276;-69
2022/11/28 13:05:25;;;;;;;4.47;4.07;;;5.20;99.90;;;;;;6309337;28;20292;-69
2022/11/28 13:08:53;;;;;;;8.77;5.10;;;5.30;99.90;;;;;;6308468;28;20491;-68
2022/11/28 13:12:12;;;;;;;9.37;4.83;;;5.30;99.90;;;;;;6311657;28;20265;-68
2022/11/28 13:15:30;;;;;;;4.50;4.20;;;5.30;99.90;;;;;;6314270;28;20272;-69
2022/11/28 13:18:40;;;;;;;6.53;4.63;;;5.30;99.90;;;;;;6313894;28;20601;-69
2022/11/28 13:21:49;;;;;;;5.70;4.73;;;5.30;99.90;;;;;;6314258;28;20265;-69
2022/11/28 13:25:02;;;;;;;4.30;4.10;;;5.30;99.90;;;;;;6313713;28;20580;-69
2022/11/28 13:28:16;;;;;;;4.57;4.23;;;5.20;99.90;;;;;;6313453;28;20301;-68
2022/11/28 13:31:26;;;;;;;4.97;4.57;;;5.20;99.90;;;;;;6313676;28;20285;-69
2022/11/28 13:34:32;;;;;;;5.27;4.53;;;5.20;99.90;;;;;;6313329;28;20321;-68
2022/11/28 13:37:44;;;;;;;6.50;4.90;;;5.10;99.90;;;;;;6313142;28;20298;-69
2022/11/28 13:41:13;;;;;;;7.17;4.80;;;5.20;99.90;;;;;;6317586;28;20295;-68
2022/11/28 13:44:46;;;;;;;5.23;4.70;;;5.20;99.90;;;;;;6338244;28;20299;-69
2022/11/28 13:47:53;;;;;;;3.50;3.40;;;5.10;99.90;;;;;;6338052;28;20300;-69
2022/11/28 13:51:00;;;;;;;4.43;4.13;;;5.20;99.90;;;;;;6338681;28;20287;-68
2022/11/28 13:54:44;;;;;;;4.23;3.77;;;5.20;99.90;;;;;;6337827;28;20318;-68
2022/11/28 13:57:50;;;;;;;4.40;4.00;;;5.00;99.90;;;;;;6338022;28;20296;-68
2022/11/28 14:01:08;;;;;;;4.87;4.37;;;5.10;99.90;;;;;;6338542;28;20275;-69
2022/11/28 14:04:14;;;;;;;4.27;4.07;;;5.00;99.90;;;;;;6337201;28;20296;-68
2022/11/28 14:07:28;;;;;;;4.43;4.20;;;5.00;99.90;;;;;;6319447;28;20289;-69
2022/11/28 14:10:58;;;;;;;4.43;4.03;;;5.00;99.90;;;;;;6319406;28;20285;-69
2022/11/28 14:14:47;;;;;;;4.50;4.20;;;4.90;99.90;;;;;;6286078;28;20303;-68
2022/11/28 14:18:26;;;;;;;4.20;3.80;;;5.00;99.90;;;;;;6272924;28;20292;-68
2022/11/28 14:22:02;;;;;;;4.03;3.90;;;5.00;99.90;;;;;;6285723;28;20456;-68
2022/11/28 14:25:15;;;;;;;4.03;3.80;;;5.00;99.90;;;;;;6310760;28;20270;-68
2022/11/28 14:28:24;;;;;;;4.00;3.80;;;4.90;99.90;;;;;;6310857;28;20292;-68
2022/11/28 14:31:34;;;;;;;4.53;4.23;;;4.90;99.90;;;;;;6312220;28;20288;-69
2022/11/28 14:34:45;;;;;;;4.80;4.40;;;5.00;99.90;;;;;;6310602;28;20299;-70
2022/11/28 14:37:54;;;;;;;5.40;4.93;;;5.00;99.90;;;;;;6310733;28;20305;-70
2022/11/28 14:41:05;;;;;;;4.73;4.37;;;5.00;99.90;;;;;;6314799;28;20272;-68
2022/11/28 14:44:49;;;;;;;5.13;4.60;;;5.00;99.90;;;;;;6319145;28;20320;-69
2022/11/28 14:48:14;;;;;;;5.00;4.77;;;5.00;99.90;;;;;;6318831;28;20291;-69
2022/11/28 14:51:19;;;;;;;5.77;5.27;;;4.90;99.90;;;;;;6337200;28;20591;-68
2022/11/28 14:54:29;;;;;;;5.60;5.20;;;4.90;99.90;;;;;;6318530;28;20294;-69
2022/11/28 14:57:37;;;;;;;6.70;5.93;;;4.90;99.90;;;;;;6318423;28;20611;-69
2022/11/28 15:00:50;;;;;;;6.80;6.20;;;4.80;99.90;;;;;;6336937;28;20274;-69
2022/11/28 15:04:00;;;;;;;5.70;5.33;;;4.90;99.90;;;;;;6335996;28;20328;-69
2022/11/28 15:07:13;;;;;;;6.20;5.80;;;4.80;99.90;;;;;;6336264;28;20270;-69
2022/11/28 15:10:23;;;;;;;6.30;5.80;;;4.80;99.90;;;;;;6303714;28;20300;-68
2022/11/28 15:13:45;;;;;;;6.70;6.00;;;4.80;99.90;;;;;;6285233;28;20304;-69
2022/11/28 15:16:55;;;;;;;6.40;5.90;;;4.80;99.90;;;;;;6286877;28;20542;-69
2022/11/28 15:20:04;;;;;;;6.30;5.80;;;4.80;99.90;;;;;;6286103;28;20268;-69
2022/11/28 15:23:23;;;;;;;6.07;5.67;;;4.90;99.90;;;;;;6284997;28;20605;-68
2022/11/28 15:26:29;;;;;;;5.93;5.40;;;4.80;99.90;;;;;;6286871;28;20269;-69
2022/11/28 15:29:36;;;;;;;5.13;4.90;;;4.80;99.90;;;;;;6285744;28;20592;-68
2022/11/28 15:32:42;;;;;;;5.73;5.33;;;4.90;99.90;;;;;;6285935;28;20305;-68
2022/11/28 15:35:57;;;;;;;5.60;5.20;;;4.80;99.90;;;;;;6285239;28;20276;-68
2022/11/28 15:39:02;;;;;;;6.07;5.67;;;4.80;99.90;;;;;;6284640;28;20298;-69
2022/11/28 15:42:21;;;;;;;6.20;5.80;;;4.80;99.90;;;;;;6291072;28;20371;-69
2022/11/28 15:45:28;;;;;;;6.37;5.83;;;4.70;99.90;;;;;;6268464;28;20274;-69
2022/11/28 15:48:37;;;;;;;7.43;6.73;;;4.80;99.90;;;;;;6267876;28;20312;-69
2022/11/28 15:51:53;;;;;;;7.20;6.60;;;4.80;99.90;;;;;;6285732;28;20304;-68
2022/11/28 15:54:58;;;;;;;7.47;6.87;;;4.90;99.90;;;;;;6285441;28;20297;-70
2022/11/28 15:58:18;;;;;;;7.67;6.97;;;4.80;99.90;;;;;;6285215;28;20292;-70
2022/11/28 16:01:25;;;;;;;9.13;7.70;;;4.80;99.90;;;;;;6285723;28;20268;-68
2022/11/28 16:04:32;;;;;;;8.43;7.23;;;4.80;99.90;;;;;;6284329;28;20292;-68
2022/11/28 16:07:42;;;;;;;7.80;7.10;;;4.80;99.90;;;;;;6283800;28;20491;-69
2022/11/28 16:10:46;;;;;;;7.60;6.90;;;4.80;99.90;;;;;;6248864;28;20291;-69
2022/11/28 16:13:52;;;;;;;6.97;6.47;;;4.80;99.90;;;;;;6235900;28;20298;-69
2022/11/28 16:16:57;;;;;;;9.37;7.00;;;4.70;99.90;;;;;;6236017;28;20274;-69
2022/11/28 16:20:06;;;;;;;7.70;6.97;;;4.80;99.90;;;;;;6235949;28;20271;-68
2022/11/28 16:23:22;;;;;;;9.33;7.67;;;4.80;99.90;;;;;;6234848;28;20306;-68
2022/11/28 16:26:33;;;;;;;9.93;7.50;;;4.90;99.90;;;;;;6235901;28;20463;-69
2022/11/28 16:29:45;;;;;;;8.90;8.00;;;4.90;99.90;;;;;;6235537;28;20487;-68
2022/11/28 16:32:51;;;;;;;8.77;7.87;;;4.80;99.90;;;;;;6236057;28;20333;-69
2022/11/28 16:36:19;;;;;;;9.27;7.63;;;4.70;99.90;;;;;;6236372;28;20274;-68
2022/11/28 16:39:24;;;;;;;9.53;7.27;;;4.80;99.90;;;;;;6235427;28;20302;-70
2022/11/28 16:42:29;;;;;;;8.90;8.03;;;4.80;99.90;;;;;;6269198;28;20301;-69